sensor_id;sensor_type;location;lat;lon;timestamp;temperature;humidity
43581;DHT22;29175;51.030;4.606;2024-01-30T00:02:14;8.50;99.90
43581;DHT22;29175;51.030;4.606;2024-01-30T00:04:39;8.60;99.90
43581;DHT22;29175;51.030;4.606;2024-01-30T00:07:05;8.60;99.90
43581;DHT22;29175;51.030;4.606;2024-01-30T00:09:30;8.60;99.90
43581;DHT22;29175;51.030;4.606;2024-01-30T00:11:56;8.70;99.90
43581;DHT22;29175;51.030;4.606;2024-01-30T00:14:24;8.70;99.90
43581;DHT22;29175;51.030;4.606;2024-01-30T00:16:50;8.70;99.90
43581;DHT22;29175;51.030;4.606;2024-01-30T00:21:44;8.60;99.90
43581;DHT22;29175;51.030;4.606;2024-01-30T00:24:10;8.50;99.90
43581;DHT22;29175;51.030;4.606;2024-01-30T00:26:37;8.50;99.90
43581;DHT22;29175;51.030;4.606;2024-01-30T00:29:04;8.60;99.90
43581;DHT22;29175;51.030;4.606;2024-01-30T00:31:30;8.60;99.90
43581;DHT22;29175;51.030;4.606;2024-01-30T00:33:55;8.40;99.90
43581;DHT22;29175;51.030;4.606;2024-01-30T00:36:24;8.40;99.90
43581;DHT22;29175;51.030;4.606;2024-01-30T00:38:50;8.40;99.90
43581;DHT22;29175;51.030;4.606;2024-01-30T00:41:17;8.50;99.90
43581;DHT22;29175;51.030;4.606;2024-01-30T00:43:44;8.60;99.90
43581;DHT22;29175;51.030;4.606;2024-01-30T00:46:13;8.60;99.90
43581;DHT22;29175;51.030;4.606;2024-01-30T00:48:38;8.60;99.90
43581;DHT22;29175;51.030;4.606;2024-01-30T00:51:05;8.50;99.90
43581;DHT22;29175;51.030;4.606;2024-01-30T00:53:31;8.50;99.90
43581;DHT22;29175;51.030;4.606;2024-01-30T00:55:57;8.50;99.90
43581;DHT22;29175;51.030;4.606;2024-01-30T00:58:25;8.60;99.90
43581;DHT22;29175;51.030;4.606;2024-01-30T01:00:51;8.60;99.90
43581;DHT22;29175;51.030;4.606;2024-01-30T01:03:18;8.60;99.90
43581;DHT22;29175;51.030;4.606;2024-01-30T01:05:45;8.70;99.90
43581;DHT22;29175;51.030;4.606;2024-01-30T01:08:10;8.70;99.90
43581;DHT22;29175;51.030;4.606;2024-01-30T01:10:36;8.80;99.90
43581;DHT22;29175;51.030;4.606;2024-01-30T01:13:03;8.60;99.90
43581;DHT22;29175;51.030;4.606;2024-01-30T01:15:28;8.90;99.90
43581;DHT22;29175;51.030;4.606;2024-01-30T01:17:56;8.90;99.90
43581;DHT22;29175;51.030;4.606;2024-01-30T01:20:22;8.90;99.90
43581;DHT22;29175;51.030;4.606;2024-01-30T01:22:47;8.90;99.90
43581;DHT22;29175;51.030;4.606;2024-01-30T01:25:13;9.00;99.90
43581;DHT22;29175;51.030;4.606;2024-01-30T01:27:38;9.00;99.90
43581;DHT22;29175;51.030;4.606;2024-01-30T01:30:07;8.90;99.90
43581;DHT22;29175;51.030;4.606;2024-01-30T01:32:34;9.00;99.90
43581;DHT22;29175;51.030;4.606;2024-01-30T01:35:01;8.90;99.90
43581;DHT22;29175;51.030;4.606;2024-01-30T01:37:28;9.00;99.90
43581;DHT22;29175;51.030;4.606;2024-01-30T01:39:54;9.10;99.90
43581;DHT22;29175;51.030;4.606;2024-01-30T01:42:22;9.10;99.90
43581;DHT22;29175;51.030;4.606;2024-01-30T01:44:49;9.00;99.90
43581;DHT22;29175;51.030;4.606;2024-01-30T01:47:16;9.00;99.90
43581;DHT22;29175;51.030;4.606;2024-01-30T01:49:44;9.10;99.90
43581;DHT22;29175;51.030;4.606;2024-01-30T01:52:10;9.00;99.90
43581;DHT22;29175;51.030;4.606;2024-01-30T01:54:35;9.00;99.90
43581;DHT22;29175;51.030;4.606;2024-01-30T01:57:05;9.00;99.90
43581;DHT22;29175;51.030;4.606;2024-01-30T02:02:02;9.10;99.90
43581;DHT22;29175;51.030;4.606;2024-01-30T02:06:59;9.10;99.90
43581;DHT22;29175;51.030;4.606;2024-01-30T02:09:27;9.10;99.90
43581;DHT22;29175;51.030;4.606;2024-01-30T02:11:52;9.10;99.90
43581;DHT22;29175;51.030;4.606;2024-01-30T02:16:48;9.10;99.90
43581;DHT22;29175;51.030;4.606;2024-01-30T02:19:16;9.10;99.90
43581;DHT22;29175;51.030;4.606;2024-01-30T02:21:41;9.10;99.90
43581;DHT22;29175;51.030;4.606;2024-01-30T02:24:08;9.10;99.90
43581;DHT22;29175;51.030;4.606;2024-01-30T02:26:34;9.00;99.90
43581;DHT22;29175;51.030;4.606;2024-01-30T02:29:01;9.00;99.90
43581;DHT22;29175;51.030;4.606;2024-01-30T02:31:27;8.90;99.90
43581;DHT22;29175;51.030;4.606;2024-01-30T02:33:53;8.90;99.90
43581;DHT22;29175;51.030;4.606;2024-01-30T02:36:19;8.90;99.90
43581;DHT22;29175;51.030;4.606;2024-01-30T02:38:45;8.90;99.90
43581;DHT22;29175;51.030;4.606;2024-01-30T02:41:11;8.90;99.90
43581;DHT22;29175;51.030;4.606;2024-01-30T02:43:37;8.90;99.90
43581;DHT22;29175;51.030;4.606;2024-01-30T02:46:03;8.80;99.90
43581;DHT22;29175;51.030;4.606;2024-01-30T02:48:28;8.80;99.90
43581;DHT22;29175;51.030;4.606;2024-01-30T02:50:54;8.70;99.90
43581;DHT22;29175;51.030;4.606;2024-01-30T02:53:19;8.60;99.90
43581;DHT22;29175;51.030;4.606;2024-01-30T02:55:45;8.70;99.90
43581;DHT22;29175;51.030;4.606;2024-01-30T02:58:11;8.60;99.90
43581;DHT22;29175;51.030;4.606;2024-01-30T03:00:36;8.70;99.90
43581;DHT22;29175;51.030;4.606;2024-01-30T03:03:04;8.70;99.90
43581;DHT22;29175;51.030;4.606;2024-01-30T03:05:30;8.50;99.90
43581;DHT22;29175;51.030;4.606;2024-01-30T03:07:57;8.60;99.90
43581;DHT22;29175;51.030;4.606;2024-01-30T03:10:23;8.60;99.90
43581;DHT22;29175;51.030;4.606;2024-01-30T03:12:48;8.70;99.90
43581;DHT22;29175;51.030;4.606;2024-01-30T03:15:15;8.70;99.90
43581;DHT22;29175;51.030;4.606;2024-01-30T03:17:42;8.70;99.90
43581;DHT22;29175;51.030;4.606;2024-01-30T03:20:08;8.70;99.90
43581;DHT22;29175;51.030;4.606;2024-01-30T03:22:40;8.70;99.90
43581;DHT22;29175;51.030;4.606;2024-01-30T03:25:06;8.70;99.90
43581;DHT22;29175;51.030;4.606;2024-01-30T03:27:33;8.70;99.90
43581;DHT22;29175;51.030;4.606;2024-01-30T03:29:58;8.60;99.90
43581;DHT22;29175;51.030;4.606;2024-01-30T03:32:24;8.50;99.90
43581;DHT22;29175;51.030;4.606;2024-01-30T03:34:51;8.60;99.90
43581;DHT22;29175;51.030;4.606;2024-01-30T03:37:16;8.60;99.90
43581;DHT22;29175;51.030;4.606;2024-01-30T03:39:43;8.70;99.90
43581;DHT22;29175;51.030;4.606;2024-01-30T03:42:10;8.70;99.90
43581;DHT22;29175;51.030;4.606;2024-01-30T03:44:36;8.80;99.90
43581;DHT22;29175;51.030;4.606;2024-01-30T03:47:02;8.80;99.90
43581;DHT22;29175;51.030;4.606;2024-01-30T03:49:29;8.80;99.90
43581;DHT22;29175;51.030;4.606;2024-01-30T03:51:54;8.80;99.90
43581;DHT22;29175;51.030;4.606;2024-01-30T03:54:21;8.80;99.90
43581;DHT22;29175;51.030;4.606;2024-01-30T03:56:46;8.90;99.90
43581;DHT22;29175;51.030;4.606;2024-01-30T03:59:14;9.00;99.90
43581;DHT22;29175;51.030;4.606;2024-01-30T04:01:41;8.90;99.90
43581;DHT22;29175;51.030;4.606;2024-01-30T04:09:06;9.00;99.90
43581;DHT22;29175;51.030;4.606;2024-01-30T04:11:32;9.00;99.90
43581;DHT22;29175;51.030;4.606;2024-01-30T04:13:58;9.10;99.90
43581;DHT22;29175;51.030;4.606;2024-01-30T04:18:53;9.10;99.90
43581;DHT22;29175;51.030;4.606;2024-01-30T04:21:20;9.20;99.90
43581;DHT22;29175;51.030;4.606;2024-01-30T04:23:46;9.10;99.90
43581;DHT22;29175;51.030;4.606;2024-01-30T04:26:11;9.20;99.90
43581;DHT22;29175;51.030;4.606;2024-01-30T04:28:37;9.20;99.90
43581;DHT22;29175;51.030;4.606;2024-01-30T04:31:05;9.20;99.90
43581;DHT22;29175;51.030;4.606;2024-01-30T04:33:30;9.20;99.90
43581;DHT22;29175;51.030;4.606;2024-01-30T04:35:57;9.20;99.90
43581;DHT22;29175;51.030;4.606;2024-01-30T04:38:24;9.20;99.90
43581;DHT22;29175;51.030;4.606;2024-01-30T04:40:50;9.20;99.90
43581;DHT22;29175;51.030;4.606;2024-01-30T04:43:18;9.20;99.90
43581;DHT22;29175;51.030;4.606;2024-01-30T04:45:46;9.30;99.90
43581;DHT22;29175;51.030;4.606;2024-01-30T04:48:12;9.20;99.90
43581;DHT22;29175;51.030;4.606;2024-01-30T04:50:39;9.30;99.90
43581;DHT22;29175;51.030;4.606;2024-01-30T04:53:06;9.30;99.90
43581;DHT22;29175;51.030;4.606;2024-01-30T04:55:31;9.30;99.90
43581;DHT22;29175;51.030;4.606;2024-01-30T04:57:57;9.40;99.90
43581;DHT22;29175;51.030;4.606;2024-01-30T05:00:23;9.40;99.90
43581;DHT22;29175;51.030;4.606;2024-01-30T05:02:51;9.40;99.90
43581;DHT22;29175;51.030;4.606;2024-01-30T05:05:17;9.50;99.90
43581;DHT22;29175;51.030;4.606;2024-01-30T05:07:43;9.50;99.90
43581;DHT22;29175;51.030;4.606;2024-01-30T05:10:09;9.40;99.90
43581;DHT22;29175;51.030;4.606;2024-01-30T05:12:40;9.40;99.90
43581;DHT22;29175;51.030;4.606;2024-01-30T05:15:05;9.30;99.90
43581;DHT22;29175;51.030;4.606;2024-01-30T05:17:31;9.20;99.90
43581;DHT22;29175;51.030;4.606;2024-01-30T05:19:58;9.20;99.90
43581;DHT22;29175;51.030;4.606;2024-01-30T05:22:24;9.30;99.90
43581;DHT22;29175;51.030;4.606;2024-01-30T05:24:51;9.40;99.90
43581;DHT22;29175;51.030;4.606;2024-01-30T05:27:18;9.40;99.90
43581;DHT22;29175;51.030;4.606;2024-01-30T05:29:43;9.40;99.90
43581;DHT22;29175;51.030;4.606;2024-01-30T05:32:11;9.50;99.90
43581;DHT22;29175;51.030;4.606;2024-01-30T05:34:37;9.50;99.90
43581;DHT22;29175;51.030;4.606;2024-01-30T05:37:03;9.60;99.90
43581;DHT22;29175;51.030;4.606;2024-01-30T05:39:30;9.70;99.90
43581;DHT22;29175;51.030;4.606;2024-01-30T05:41:58;9.70;99.90
43581;DHT22;29175;51.030;4.606;2024-01-30T05:44:24;9.80;99.90
43581;DHT22;29175;51.030;4.606;2024-01-30T05:46:49;9.90;99.90
43581;DHT22;29175;51.030;4.606;2024-01-30T05:49:18;9.90;99.90
43581;DHT22;29175;51.030;4.606;2024-01-30T05:51:44;9.90;99.90
43581;DHT22;29175;51.030;4.606;2024-01-30T05:54:10;10.00;99.90
43581;DHT22;29175;51.030;4.606;2024-01-30T05:56:36;10.10;99.90
43581;DHT22;29175;51.030;4.606;2024-01-30T05:59:03;10.00;99.90
43581;DHT22;29175;51.030;4.606;2024-01-30T06:01:28;10.10;99.90
43581;DHT22;29175;51.030;4.606;2024-01-30T06:03:54;10.20;99.90
43581;DHT22;29175;51.030;4.606;2024-01-30T06:06:22;10.20;99.90
43581;DHT22;29175;51.030;4.606;2024-01-30T06:08:48;10.10;99.90
43581;DHT22;29175;51.030;4.606;2024-01-30T06:11:14;10.10;99.90
43581;DHT22;29175;51.030;4.606;2024-01-30T06:13:39;10.30;99.90
43581;DHT22;29175;51.030;4.606;2024-01-30T06:16:05;10.30;99.90
43581;DHT22;29175;51.030;4.606;2024-01-30T06:18:34;10.40;99.90
43581;DHT22;29175;51.030;4.606;2024-01-30T06:20:59;10.40;99.90
43581;DHT22;29175;51.030;4.606;2024-01-30T06:23:25;10.40;99.90
43581;DHT22;29175;51.030;4.606;2024-01-30T06:25:50;10.40;99.90
43581;DHT22;29175;51.030;4.606;2024-01-30T06:28:17;10.30;99.90
43581;DHT22;29175;51.030;4.606;2024-01-30T06:30:44;10.40;99.90
43581;DHT22;29175;51.030;4.606;2024-01-30T06:33:11;10.40;99.90
43581;DHT22;29175;51.030;4.606;2024-01-30T06:35:37;10.50;99.90
43581;DHT22;29175;51.030;4.606;2024-01-30T06:38:05;10.50;99.90
43581;DHT22;29175;51.030;4.606;2024-01-30T06:40:31;10.40;99.90
43581;DHT22;29175;51.030;4.606;2024-01-30T06:42:57;10.40;99.90
43581;DHT22;29175;51.030;4.606;2024-01-30T06:45:23;10.30;99.90
43581;DHT22;29175;51.030;4.606;2024-01-30T06:47:49;10.30;99.90
43581;DHT22;29175;51.030;4.606;2024-01-30T06:50:17;10.40;99.90
43581;DHT22;29175;51.030;4.606;2024-01-30T06:52:43;10.40;99.90
43581;DHT22;29175;51.030;4.606;2024-01-30T06:55:09;10.40;99.90
43581;DHT22;29175;51.030;4.606;2024-01-30T06:57:34;10.50;99.90
43581;DHT22;29175;51.030;4.606;2024-01-30T07:00:00;10.50;99.90
43581;DHT22;29175;51.030;4.606;2024-01-30T07:02:27;10.50;99.90
43581;DHT22;29175;51.030;4.606;2024-01-30T07:04:52;10.60;99.90
43581;DHT22;29175;51.030;4.606;2024-01-30T07:07:18;10.50;99.90
43581;DHT22;29175;51.030;4.606;2024-01-30T07:09:44;10.60;99.90
43581;DHT22;29175;51.030;4.606;2024-01-30T07:12:12;10.60;99.90
43581;DHT22;29175;51.030;4.606;2024-01-30T07:14:38;10.70;99.90
43581;DHT22;29175;51.030;4.606;2024-01-30T07:17:03;10.70;99.90
43581;DHT22;29175;51.030;4.606;2024-01-30T07:19:29;10.80;99.90
43581;DHT22;29175;51.030;4.606;2024-01-30T07:21:54;10.80;99.90
43581;DHT22;29175;51.030;4.606;2024-01-30T07:24:20;10.80;99.90
43581;DHT22;29175;51.030;4.606;2024-01-30T07:26:45;10.90;99.90
43581;DHT22;29175;51.030;4.606;2024-01-30T07:31:41;10.90;99.90
43581;DHT22;29175;51.030;4.606;2024-01-30T07:34:06;10.90;99.90
43581;DHT22;29175;51.030;4.606;2024-01-30T07:36:34;10.90;99.90
43581;DHT22;29175;51.030;4.606;2024-01-30T07:39:00;11.00;99.90
43581;DHT22;29175;51.030;4.606;2024-01-30T07:41:28;11.10;99.90
43581;DHT22;29175;51.030;4.606;2024-01-30T07:43:55;11.00;99.90
43581;DHT22;29175;51.030;4.606;2024-01-30T07:46:20;11.10;99.90
43581;DHT22;29175;51.030;4.606;2024-01-30T07:48:46;11.10;99.90
43581;DHT22;29175;51.030;4.606;2024-01-30T07:51:12;11.20;99.90
43581;DHT22;29175;51.030;4.606;2024-01-30T07:53:39;11.10;99.90
43581;DHT22;29175;51.030;4.606;2024-01-30T07:56:05;11.20;99.90
43581;DHT22;29175;51.030;4.606;2024-01-30T07:58:31;11.20;99.90
43581;DHT22;29175;51.030;4.606;2024-01-30T08:00:56;11.10;99.90
43581;DHT22;29175;51.030;4.606;2024-01-30T08:03:24;11.10;99.90
43581;DHT22;29175;51.030;4.606;2024-01-30T08:05:49;11.20;99.90
43581;DHT22;29175;51.030;4.606;2024-01-30T08:08:16;11.20;99.90
43581;DHT22;29175;51.030;4.606;2024-01-30T08:10:41;11.20;99.90
43581;DHT22;29175;51.030;4.606;2024-01-30T08:13:07;11.30;99.90
43581;DHT22;29175;51.030;4.606;2024-01-30T08:15:35;11.30;99.90
43581;DHT22;29175;51.030;4.606;2024-01-30T08:18:01;11.30;99.90
43581;DHT22;29175;51.030;4.606;2024-01-30T08:20:27;11.40;99.90
43581;DHT22;29175;51.030;4.606;2024-01-30T08:22:53;11.40;99.90
43581;DHT22;29175;51.030;4.606;2024-01-30T08:25:19;11.30;99.90
43581;DHT22;29175;51.030;4.606;2024-01-30T08:27:46;11.30;99.90
43581;DHT22;29175;51.030;4.606;2024-01-30T08:30:11;11.40;99.90
43581;DHT22;29175;51.030;4.606;2024-01-30T08:32:38;11.50;99.90
43581;DHT22;29175;51.030;4.606;2024-01-30T08:35:04;11.50;99.90
43581;DHT22;29175;51.030;4.606;2024-01-30T08:37:30;11.50;99.90
43581;DHT22;29175;51.030;4.606;2024-01-30T08:39:56;11.60;99.90
43581;DHT22;29175;51.030;4.606;2024-01-30T08:42:22;11.60;99.90
43581;DHT22;29175;51.030;4.606;2024-01-30T08:44:48;11.60;99.90
43581;DHT22;29175;51.030;4.606;2024-01-30T08:47:14;11.70;99.90
43581;DHT22;29175;51.030;4.606;2024-01-30T08:49:42;11.80;99.90
43581;DHT22;29175;51.030;4.606;2024-01-30T08:52:10;11.90;99.90
43581;DHT22;29175;51.030;4.606;2024-01-30T08:54:36;11.90;99.90
43581;DHT22;29175;51.030;4.606;2024-01-30T08:57:02;11.80;99.90
43581;DHT22;29175;51.030;4.606;2024-01-30T08:59:30;11.80;99.90
43581;DHT22;29175;51.030;4.606;2024-01-30T09:01:55;11.80;99.90
43581;DHT22;29175;51.030;4.606;2024-01-30T09:04:23;11.90;99.90
43581;DHT22;29175;51.030;4.606;2024-01-30T09:06:48;12.00;99.90
43581;DHT22;29175;51.030;4.606;2024-01-30T09:09:15;12.00;99.90
43581;DHT22;29175;51.030;4.606;2024-01-30T09:11:41;11.90;99.90
43581;DHT22;29175;51.030;4.606;2024-01-30T09:14:06;11.90;99.90
43581;DHT22;29175;51.030;4.606;2024-01-30T09:16:32;12.00;99.90
43581;DHT22;29175;51.030;4.606;2024-01-30T09:19:00;11.90;99.90
43581;DHT22;29175;51.030;4.606;2024-01-30T09:21:26;12.00;99.90
43581;DHT22;29175;51.030;4.606;2024-01-30T09:23:53;12.00;99.90
43581;DHT22;29175;51.030;4.606;2024-01-30T09:26:25;11.90;99.90
43581;DHT22;29175;51.030;4.606;2024-01-30T09:28:50;12.00;99.90
43581;DHT22;29175;51.030;4.606;2024-01-30T09:31:16;11.90;99.90
43581;DHT22;29175;51.030;4.606;2024-01-30T09:33:43;11.90;99.90
43581;DHT22;29175;51.030;4.606;2024-01-30T09:36:11;12.00;99.90
43581;DHT22;29175;51.030;4.606;2024-01-30T09:38:37;12.00;99.90
43581;DHT22;29175;51.030;4.606;2024-01-30T09:41:03;12.00;99.90
43581;DHT22;29175;51.030;4.606;2024-01-30T09:46:00;12.10;99.90
43581;DHT22;29175;51.030;4.606;2024-01-30T09:48:29;12.10;99.90
43581;DHT22;29175;51.030;4.606;2024-01-30T09:50:56;12.20;99.90
43581;DHT22;29175;51.030;4.606;2024-01-30T09:53:22;12.20;99.90
43581;DHT22;29175;51.030;4.606;2024-01-30T09:55:48;12.30;99.90
43581;DHT22;29175;51.030;4.606;2024-01-30T09:58:17;12.30;99.90
43581;DHT22;29175;51.030;4.606;2024-01-30T10:00:43;12.10;99.90
43581;DHT22;29175;51.030;4.606;2024-01-30T10:03:10;12.10;99.90
43581;DHT22;29175;51.030;4.606;2024-01-30T10:05:39;12.10;99.90
43581;DHT22;29175;51.030;4.606;2024-01-30T10:08:08;12.10;99.90
43581;DHT22;29175;51.030;4.606;2024-01-30T10:10:36;12.10;99.90
43581;DHT22;29175;51.030;4.606;2024-01-30T10:13:03;12.00;99.90
43581;DHT22;29175;51.030;4.606;2024-01-30T10:15:29;12.10;99.90
43581;DHT22;29175;51.030;4.606;2024-01-30T10:18:01;12.00;99.90
43581;DHT22;29175;51.030;4.606;2024-01-30T10:20:27;11.90;99.90
43581;DHT22;29175;51.030;4.606;2024-01-30T10:22:54;11.90;99.90
43581;DHT22;29175;51.030;4.606;2024-01-30T10:25:21;12.00;99.90
43581;DHT22;29175;51.030;4.606;2024-01-30T10:27:46;12.10;99.90
43581;DHT22;29175;51.030;4.606;2024-01-30T10:30:12;12.10;99.90
43581;DHT22;29175;51.030;4.606;2024-01-30T10:32:40;12.20;99.90
43581;DHT22;29175;51.030;4.606;2024-01-30T10:35:05;12.30;99.90
43581;DHT22;29175;51.030;4.606;2024-01-30T10:37:31;12.30;99.90
43581;DHT22;29175;51.030;4.606;2024-01-30T10:39:58;12.40;99.90
43581;DHT22;29175;51.030;4.606;2024-01-30T10:42:28;12.30;99.90
43581;DHT22;29175;51.030;4.606;2024-01-30T10:45:00;12.20;99.90
43581;DHT22;29175;51.030;4.606;2024-01-30T10:47:32;12.10;99.90
43581;DHT22;29175;51.030;4.606;2024-01-30T10:50:00;12.20;99.90
43581;DHT22;29175;51.030;4.606;2024-01-30T10:52:26;12.00;99.90
43581;DHT22;29175;51.030;4.606;2024-01-30T10:54:53;11.90;99.90
43581;DHT22;29175;51.030;4.606;2024-01-30T10:57:20;11.80;99.90
43581;DHT22;29175;51.030;4.606;2024-01-30T10:59:48;11.80;99.90
43581;DHT22;29175;51.030;4.606;2024-01-30T11:02:14;11.80;99.90
43581;DHT22;29175;51.030;4.606;2024-01-30T11:04:43;11.80;99.90
43581;DHT22;29175;51.030;4.606;2024-01-30T11:07:18;11.80;99.90
43581;DHT22;29175;51.030;4.606;2024-01-30T11:09:54;11.70;99.90
43581;DHT22;29175;51.030;4.606;2024-01-30T11:12:45;11.70;99.90
43581;DHT22;29175;51.030;4.606;2024-01-30T11:15:15;11.80;99.90
43581;DHT22;29175;51.030;4.606;2024-01-30T11:17:45;11.80;99.90
43581;DHT22;29175;51.030;4.606;2024-01-30T11:20:13;11.90;99.90
43581;DHT22;29175;51.030;4.606;2024-01-30T11:22:40;11.80;99.90
43581;DHT22;29175;51.030;4.606;2024-01-30T11:25:06;11.80;99.90
43581;DHT22;29175;51.030;4.606;2024-01-30T11:27:36;11.90;99.90
43581;DHT22;29175;51.030;4.606;2024-01-30T11:30:03;11.70;99.90
43581;DHT22;29175;51.030;4.606;2024-01-30T11:32:29;11.60;99.90
43581;DHT22;29175;51.030;4.606;2024-01-30T11:34:55;11.50;99.90
43581;DHT22;29175;51.030;4.606;2024-01-30T11:37:20;11.50;99.90
43581;DHT22;29175;51.030;4.606;2024-01-30T11:39:47;11.60;99.90
43581;DHT22;29175;51.030;4.606;2024-01-30T11:42:13;11.70;99.90
43581;DHT22;29175;51.030;4.606;2024-01-30T11:44:39;11.90;99.90
43581;DHT22;29175;51.030;4.606;2024-01-30T11:47:05;12.10;99.90
43581;DHT22;29175;51.030;4.606;2024-01-30T11:49:31;12.20;99.90
43581;DHT22;29175;51.030;4.606;2024-01-30T11:51:56;12.40;99.90
43581;DHT22;29175;51.030;4.606;2024-01-30T11:54:23;12.90;99.90
43581;DHT22;29175;51.030;4.606;2024-01-30T11:56:49;13.30;99.90
43581;DHT22;29175;51.030;4.606;2024-01-30T11:59:20;13.50;99.90
43581;DHT22;29175;51.030;4.606;2024-01-30T12:01:48;13.90;99.90
43581;DHT22;29175;51.030;4.606;2024-01-30T12:04:15;14.50;99.90
43581;DHT22;29175;51.030;4.606;2024-01-30T12:06:40;14.20;99.90
43581;DHT22;29175;51.030;4.606;2024-01-30T12:09:08;13.90;99.90
43581;DHT22;29175;51.030;4.606;2024-01-30T12:11:44;13.70;99.90
43581;DHT22;29175;51.030;4.606;2024-01-30T12:14:12;13.70;99.90
43581;DHT22;29175;51.030;4.606;2024-01-30T12:16:38;13.50;99.90
43581;DHT22;29175;51.030;4.606;2024-01-30T12:19:04;13.10;99.90
43581;DHT22;29175;51.030;4.606;2024-01-30T12:21:33;12.90;99.90
43581;DHT22;29175;51.030;4.606;2024-01-30T12:23:59;12.70;99.90
43581;DHT22;29175;51.030;4.606;2024-01-30T12:26:25;12.20;99.90
43581;DHT22;29175;51.030;4.606;2024-01-30T12:31:31;11.70;99.90
43581;DHT22;29175;51.030;4.606;2024-01-30T12:33:59;12.10;99.90
43581;DHT22;29175;51.030;4.606;2024-01-30T12:36:27;12.40;99.90
43581;DHT22;29175;51.030;4.606;2024-01-30T12:38:56;12.90;99.90
43581;DHT22;29175;51.030;4.606;2024-01-30T12:43:54;13.90;99.90
43581;DHT22;29175;51.030;4.606;2024-01-30T12:46:20;13.70;99.90
43581;DHT22;29175;51.030;4.606;2024-01-30T12:48:46;13.50;99.90
43581;DHT22;29175;51.030;4.606;2024-01-30T12:51:14;13.30;99.90
43581;DHT22;29175;51.030;4.606;2024-01-30T12:53:41;13.10;99.90
43581;DHT22;29175;51.030;4.606;2024-01-30T12:56:08;13.10;99.90
43581;DHT22;29175;51.030;4.606;2024-01-30T12:58:33;13.20;99.90
43581;DHT22;29175;51.030;4.606;2024-01-30T13:00:59;13.30;99.90
43581;DHT22;29175;51.030;4.606;2024-01-30T13:03:26;13.30;99.90
43581;DHT22;29175;51.030;4.606;2024-01-30T13:05:51;13.10;99.90
43581;DHT22;29175;51.030;4.606;2024-01-30T13:08:19;12.70;99.90
43581;DHT22;29175;51.030;4.606;2024-01-30T13:10:44;12.40;99.90
43581;DHT22;29175;51.030;4.606;2024-01-30T13:13:10;12.20;99.90
43581;DHT22;29175;51.030;4.606;2024-01-30T13:15:38;12.00;99.90
43581;DHT22;29175;51.030;4.606;2024-01-30T13:18:04;11.90;99.90
43581;DHT22;29175;51.030;4.606;2024-01-30T13:20:30;12.00;99.90
43581;DHT22;29175;51.030;4.606;2024-01-30T13:22:56;12.10;99.90
43581;DHT22;29175;51.030;4.606;2024-01-30T13:25:22;12.00;99.90
43581;DHT22;29175;51.030;4.606;2024-01-30T13:27:50;11.80;99.90
43581;DHT22;29175;51.030;4.606;2024-01-30T13:30:16;11.70;99.90
43581;DHT22;29175;51.030;4.606;2024-01-30T13:35:11;11.50;99.90
43581;DHT22;29175;51.030;4.606;2024-01-30T13:37:37;11.40;99.90
43581;DHT22;29175;51.030;4.606;2024-01-30T13:40:03;11.40;99.90
43581;DHT22;29175;51.030;4.606;2024-01-30T13:42:35;11.30;99.90
43581;DHT22;29175;51.030;4.606;2024-01-30T13:45:02;11.30;99.90
43581;DHT22;29175;51.030;4.606;2024-01-30T13:47:28;11.30;99.90
43581;DHT22;29175;51.030;4.606;2024-01-30T13:49:54;11.30;99.90
43581;DHT22;29175;51.030;4.606;2024-01-30T13:52:21;11.50;99.90
43581;DHT22;29175;51.030;4.606;2024-01-30T13:54:49;11.50;99.90
43581;DHT22;29175;51.030;4.606;2024-01-30T13:57:14;11.40;99.90
43581;DHT22;29175;51.030;4.606;2024-01-30T13:59:40;11.30;99.90
43581;DHT22;29175;51.030;4.606;2024-01-30T14:02:08;11.20;99.90
43581;DHT22;29175;51.030;4.606;2024-01-30T14:04:35;11.10;99.90
43581;DHT22;29175;51.030;4.606;2024-01-30T14:07:03;11.10;99.90
43581;DHT22;29175;51.030;4.606;2024-01-30T14:09:30;11.00;99.90
43581;DHT22;29175;51.030;4.606;2024-01-30T14:11:57;10.90;99.90
43581;DHT22;29175;51.030;4.606;2024-01-30T14:14:23;10.80;99.90
43581;DHT22;29175;51.030;4.606;2024-01-30T14:16:49;10.80;99.90
43581;DHT22;29175;51.030;4.606;2024-01-30T14:19:15;10.80;99.90
43581;DHT22;29175;51.030;4.606;2024-01-30T14:21:41;10.80;99.90
43581;DHT22;29175;51.030;4.606;2024-01-30T14:24:07;10.70;99.90
43581;DHT22;29175;51.030;4.606;2024-01-30T14:26:34;10.70;99.90
43581;DHT22;29175;51.030;4.606;2024-01-30T14:29:00;10.60;99.90
43581;DHT22;29175;51.030;4.606;2024-01-30T14:31:26;10.60;99.90
43581;DHT22;29175;51.030;4.606;2024-01-30T14:33:52;10.60;99.90
43581;DHT22;29175;51.030;4.606;2024-01-30T14:36:18;10.50;99.90
43581;DHT22;29175;51.030;4.606;2024-01-30T14:38:45;10.40;99.90
43581;DHT22;29175;51.030;4.606;2024-01-30T14:41:10;10.50;99.90
43581;DHT22;29175;51.030;4.606;2024-01-30T14:43:37;10.50;99.90
43581;DHT22;29175;51.030;4.606;2024-01-30T14:46:03;10.50;99.90
43581;DHT22;29175;51.030;4.606;2024-01-30T14:48:29;10.30;99.90
43581;DHT22;29175;51.030;4.606;2024-01-30T14:50:55;10.40;99.90
43581;DHT22;29175;51.030;4.606;2024-01-30T14:53:21;10.20;99.90
43581;DHT22;29175;51.030;4.606;2024-01-30T14:55:47;10.20;99.90
43581;DHT22;29175;51.030;4.606;2024-01-30T14:58:14;10.20;99.90
43581;DHT22;29175;51.030;4.606;2024-01-30T15:00:40;10.10;99.90
43581;DHT22;29175;51.030;4.606;2024-01-30T15:03:05;10.20;99.90
43581;DHT22;29175;51.030;4.606;2024-01-30T15:05:32;10.20;99.90
43581;DHT22;29175;51.030;4.606;2024-01-30T15:07:58;10.30;99.90
43581;DHT22;29175;51.030;4.606;2024-01-30T15:10:23;10.20;99.90
43581;DHT22;29175;51.030;4.606;2024-01-30T15:12:50;10.10;99.90
43581;DHT22;29175;51.030;4.606;2024-01-30T15:15:17;10.30;99.90
43581;DHT22;29175;51.030;4.606;2024-01-30T15:17:42;10.20;99.90
43581;DHT22;29175;51.030;4.606;2024-01-30T15:20:09;10.20;99.90
43581;DHT22;29175;51.030;4.606;2024-01-30T15:22:35;10.30;99.90
43581;DHT22;29175;51.030;4.606;2024-01-30T15:25:00;10.30;99.90
43581;DHT22;29175;51.030;4.606;2024-01-30T15:27:27;10.10;99.90
43581;DHT22;29175;51.030;4.606;2024-01-30T15:29:52;10.10;99.90
43581;DHT22;29175;51.030;4.606;2024-01-30T15:32:18;10.00;99.90
43581;DHT22;29175;51.030;4.606;2024-01-30T15:34:44;10.00;99.90
43581;DHT22;29175;51.030;4.606;2024-01-30T15:37:09;9.90;99.90
43581;DHT22;29175;51.030;4.606;2024-01-30T15:39:35;10.00;99.90
43581;DHT22;29175;51.030;4.606;2024-01-30T15:42:02;10.00;99.90
43581;DHT22;29175;51.030;4.606;2024-01-30T15:44:28;10.00;99.90
43581;DHT22;29175;51.030;4.606;2024-01-30T15:46:56;10.00;99.90
43581;DHT22;29175;51.030;4.606;2024-01-30T15:49:21;10.00;99.90
43581;DHT22;29175;51.030;4.606;2024-01-30T15:51:48;10.00;99.90
43581;DHT22;29175;51.030;4.606;2024-01-30T15:54:14;10.00;99.90
43581;DHT22;29175;51.030;4.606;2024-01-30T15:56:40;9.90;99.90
43581;DHT22;29175;51.030;4.606;2024-01-30T15:59:06;9.90;99.90
43581;DHT22;29175;51.030;4.606;2024-01-30T16:01:31;9.80;99.90
43581;DHT22;29175;51.030;4.606;2024-01-30T16:03:57;9.80;99.90